Time;durP1;ratioP1;P1;durP2;ratioP2;P2;SDS_P1;SDS_P2;PMS_P1;PMS_P2;Temp;Humidity;BMP_temperature;BMP_pressure;BME280_temperature;BME280_humidity;BME280_pressure;Samples;Min_cycle;Max_cycle;Signal;HPM_P1;HPM_P2
2023/03/06 00:01:25;;;;;;;8.40;2.83;;;;;;;;;;5011049;28;20034;-75
2023/03/06 00:03:51;;;;;;;5.13;3.22;;;;;;;;;;5013026;28;20101;-76
2023/03/06 00:06:16;;;;;;;7.32;3.83;;;;;;;;;;5012443;28;20041;-75
2023/03/06 00:08:42;;;;;;;5.80;3.38;;;;;;;;;;5008167;28;20049;-75
2023/03/06 00:11:07;;;;;;;9.00;3.13;;;;;;;;;;5005238;28;20049;-75
2023/03/06 00:13:33;;;;;;;7.05;3.20;;;;;;;;;;5010232;28;20089;-75
2023/03/06 00:15:59;;;;;;;8.50;3.22;;;;;;;;;;5007612;28;20031;-76
2023/03/06 00:18:25;;;;;;;4.95;2.60;;;;;;;;;;5012986;28;20437;-76
2023/03/06 00:20:50;;;;;;;5.30;2.97;;;;;;;;;;5012116;28;20118;-75
2023/03/06 00:23:16;;;;;;;8.05;2.63;;;;;;;;;;5012009;28;20425;-76
2023/03/06 00:25:43;;;;;;;5.60;2.72;;;;;;;;;;5007923;28;20470;-75
2023/03/06 00:28:08;;;;;;;6.90;3.05;;;;;;;;;;5011658;28;20056;-75
2023/03/06 00:30:34;;;;;;;5.50;2.70;;;;;;;;;;5005343;28;20065;-76
2023/03/06 00:33:00;;;;;;;4.93;2.92;;;;;;;;;;5011403;28;20132;-76
2023/03/06 00:35:25;;;;;;;6.13;3.17;;;;;;;;;;5008735;28;20030;-75
2023/03/06 00:37:51;;;;;;;6.30;2.72;;;;;;;;;;5011592;28;20038;-75
2023/03/06 00:40:18;;;;;;;7.97;3.03;;;;;;;;;;5006300;28;20045;-75
2023/03/06 00:42:43;;;;;;;6.28;3.30;;;;;;;;;;5009695;28;20101;-76
2023/03/06 00:45:10;;;;;;;8.52;2.60;;;;;;;;;;5012155;28;20041;-76
2023/03/06 00:47:35;;;;;;;5.90;2.53;;;;;;;;;;5010212;28;20035;-75
2023/03/06 00:50:00;;;;;;;5.75;2.83;;;;;;;;;;5008785;28;20130;-76
2023/03/06 00:52:26;;;;;;;4.90;2.72;;;;;;;;;;5008915;28;20501;-75
2023/03/06 00:54:51;;;;;;;4.97;2.63;;;;;;;;;;5012047;28;20064;-76
2023/03/06 00:57:17;;;;;;;7.00;3.25;;;;;;;;;;5010483;28;20054;-76
2023/03/06 00:59:42;;;;;;;7.60;2.75;;;;;;;;;;5014567;28;20036;-75
2023/03/06 01:02:08;;;;;;;9.35;3.42;;;;;;;;;;5000627;28;20049;-75
2023/03/06 01:04:33;;;;;;;4.20;2.42;;;;;;;;;;5015907;28;20079;-75
2023/03/06 01:06:59;;;;;;;6.68;2.92;;;;;;;;;;5011220;28;20030;-75
2023/03/06 01:09:24;;;;;;;6.78;2.78;;;;;;;;;;5014563;28;20464;-75
2023/03/06 01:11:50;;;;;;;5.40;2.60;;;;;;;;;;5014040;28;20425;-75
2023/03/06 01:14:17;;;;;;;4.30;2.33;;;;;;;;;;5013050;28;20555;-75
2023/03/06 01:16:43;;;;;;;4.28;2.33;;;;;;;;;;5014555;28;20032;-76
2023/03/06 01:19:09;;;;;;;6.00;2.78;;;;;;;;;;5006787;28;20049;-75
2023/03/06 01:21:34;;;;;;;5.53;2.72;;;;;;;;;;5009214;28;20042;-75
2023/03/06 01:23:59;;;;;;;8.00;2.72;;;;;;;;;;5015686;28;20034;-76
2023/03/06 01:26:25;;;;;;;5.30;2.58;;;;;;;;;;5006702;28;20505;-75
2023/03/06 01:28:50;;;;;;;5.03;2.67;;;;;;;;;;5002352;28;20034;-75
2023/03/06 01:31:16;;;;;;;8.35;2.83;;;;;;;;;;5013495;28;20501;-75
2023/03/06 01:33:41;;;;;;;7.63;2.17;;;;;;;;;;5015453;28;20504;-75
2023/03/06 01:36:08;;;;;;;4.18;2.38;;;;;;;;;;5009099;28;20026;-75
2023/03/06 01:38:34;;;;;;;5.68;2.50;;;;;;;;;;5007572;28;20032;-75
2023/03/06 01:41:02;;;;;;;6.22;2.47;;;;;;;;;;5011336;28;20038;-76
2023/03/06 01:43:30;;;;;;;5.32;2.72;;;;;;;;;;5030394;28;20026;-76
2023/03/06 01:46:24;;;;;;;8.30;2.58;;;;;;;;;;5008259;28;20413;-75
2023/03/06 01:48:54;;;;;;;5.28;2.25;;;;;;;;;;5015230;28;20038;-76
2023/03/06 01:51:20;;;;;;;6.15;2.45;;;;;;;;;;5029376;28;20061;-75
2023/03/06 01:53:46;;;;;;;5.20;2.20;;;;;;;;;;5014480;28;20078;-76
2023/03/06 01:56:12;;;;;;;4.70;2.63;;;;;;;;;;5028856;28;20041;-75
2023/03/06 01:58:39;;;;;;;4.78;2.28;;;;;;;;;;5000313;28;20105;-75
2023/03/06 02:01:04;;;;;;;6.78;2.22;;;;;;;;;;5011059;28;20042;-76
2023/03/06 02:03:31;;;;;;;5.72;2.47;;;;;;;;;;5014113;28;20042;-76
2023/03/06 02:05:57;;;;;;;4.82;2.50;;;;;;;;;;5023121;28;20504;-76
2023/03/06 02:08:23;;;;;;;7.15;2.80;;;;;;;;;;5020871;28;20030;-75
2023/03/06 02:11:01;;;;;;;4.55;2.25;;;;;;;;;;5013091;28;20100;-75
2023/03/06 02:13:27;;;;;;;4.63;2.17;;;;;;;;;;5000669;28;20054;-75
2023/03/06 02:15:53;;;;;;;6.72;2.30;;;;;;;;;;5011063;28;20130;-76
2023/03/06 02:18:19;;;;;;;10.20;2.72;;;;;;;;;;5010282;28;20118;-75
2023/03/06 02:20:49;;;;;;;7.05;2.60;;;;;;;;;;5007664;28;20113;-75
2023/03/06 02:23:35;;;;;;;5.53;2.88;;;;;;;;;;5005562;28;20044;-75
2023/03/06 02:26:01;;;;;;;4.53;2.70;;;;;;;;;;5012858;28;20036;-75
2023/03/06 02:28:27;;;;;;;5.80;2.55;;;;;;;;;;5011843;28;20049;-75
2023/03/06 02:30:53;;;;;;;4.68;2.60;;;;;;;;;;5012410;28;20033;-76
2023/03/06 02:33:22;;;;;;;5.25;2.65;;;;;;;;;;5007799;28;20034;-75
2023/03/06 02:35:56;;;;;;;6.47;2.38;;;;;;;;;;5027998;28;20124;-75
2023/03/06 02:38:26;;;;;;;4.47;2.53;;;;;;;;;;5013100;28;20064;-75
2023/03/06 02:40:51;;;;;;;8.85;2.25;;;;;;;;;;5026094;28;20030;-75
2023/03/06 02:43:23;;;;;;;4.00;1.90;;;;;;;;;;5000426;28;20351;-75
2023/03/06 02:45:50;;;;;;;10.00;2.55;;;;;;;;;;5010275;28;20033;-75
2023/03/06 02:48:16;;;;;;;5.13;2.17;;;;;;;;;;4999677;28;20070;-76
2023/03/06 02:50:43;;;;;;;3.75;1.90;;;;;;;;;;5011649;28;20036;-76
2023/03/06 02:53:10;;;;;;;4.18;2.10;;;;;;;;;;5007285;28;20060;-75
2023/03/06 02:55:36;;;;;;;8.27;2.53;;;;;;;;;;5012676;28;20446;-76
2023/03/06 02:58:02;;;;;;;6.00;2.63;;;;;;;;;;5011383;28;20497;-75
2023/03/06 03:00:28;;;;;;;4.50;2.22;;;;;;;;;;5011599;28;20051;-75
2023/03/06 03:02:54;;;;;;;5.43;2.80;;;;;;;;;;5009380;28;20034;-76
2023/03/06 03:05:19;;;;;;;5.47;2.60;;;;;;;;;;5008563;28;20034;-76
2023/03/06 03:07:45;;;;;;;6.10;3.03;;;;;;;;;;5014154;28;20053;-75
2023/03/06 03:10:11;;;;;;;8.40;3.17;;;;;;;;;;5012834;28;20034;-75
2023/03/06 03:12:36;;;;;;;7.75;3.28;;;;;;;;;;5013652;28;20034;-76
2023/03/06 03:15:02;;;;;;;7.45;2.35;;;;;;;;;;5013023;28;20133;-75
2023/03/06 03:17:27;;;;;;;5.07;2.88;;;;;;;;;;5005191;28;20050;-75
2023/03/06 03:19:53;;;;;;;5.15;3.13;;;;;;;;;;4999339;28;20036;-76
2023/03/06 03:22:19;;;;;;;6.35;3.20;;;;;;;;;;5013000;28;20033;-76
2023/03/06 03:24:45;;;;;;;6.15;2.45;;;;;;;;;;5012301;28;20116;-75
2023/03/06 03:27:11;;;;;;;4.57;2.58;;;;;;;;;;5028682;28;20029;-75
2023/03/06 03:29:36;;;;;;;4.60;2.63;;;;;;;;;;5010103;28;20100;-75
2023/03/06 03:32:02;;;;;;;4.90;2.60;;;;;;;;;;5010993;28;20128;-75
2023/03/06 03:34:27;;;;;;;7.50;2.50;;;;;;;;;;5028420;28;20501;-75
2023/03/06 03:36:53;;;;;;;7.50;2.20;;;;;;;;;;5013253;28;20033;-75
2023/03/06 03:39:18;;;;;;;7.63;2.55;;;;;;;;;;5013071;28;20145;-76
2023/03/06 03:41:44;;;;;;;3.83;2.17;;;;;;;;;;5003455;28;20035;-75
2023/03/06 03:44:10;;;;;;;4.45;2.33;;;;;;;;;;5008601;28;20100;-76
2023/03/06 03:46:36;;;;;;;9.23;2.42;;;;;;;;;;4992619;28;20485;-75
2023/03/06 03:49:02;;;;;;;4.18;2.25;;;;;;;;;;5012757;28;20405;-75
2023/03/06 03:51:27;;;;;;;4.28;2.35;;;;;;;;;;5012893;28;20163;-75
2023/03/06 03:53:55;;;;;;;3.60;2.45;;;;;;;;;;5009349;28;20054;-76
2023/03/06 03:56:21;;;;;;;7.40;2.42;;;;;;;;;;5005733;28;20088;-76
2023/03/06 03:58:47;;;;;;;4.07;2.13;;;;;;;;;;5013239;28;20033;-75
2023/03/06 04:01:12;;;;;;;3.00;1.73;;;;;;;;;;5012205;28;20030;-76
2023/03/06 04:03:37;;;;;;;5.10;2.15;;;;;;;;;;5013333;28;20355;-75
2023/03/06 04:06:03;;;;;;;4.38;2.20;;;;;;;;;;5008831;28;20482;-75
2023/03/06 04:08:28;;;;;;;5.05;2.42;;;;;;;;;;5001670;28;20038;-76
2023/03/06 04:10:54;;;;;;;4.13;2.05;;;;;;;;;;5007964;28;20034;-75
2023/03/06 04:13:20;;;;;;;5.40;2.67;;;;;;;;;;5013108;28;20034;-75
2023/03/06 04:15:47;;;;;;;6.07;2.60;;;;;;;;;;5008700;28;20088;-75
2023/03/06 04:18:15;;;;;;;4.07;2.50;;;;;;;;;;5006327;28;20390;-75
2023/03/06 04:20:41;;;;;;;5.22;2.28;;;;;;;;;;5012783;28;20025;-76
2023/03/06 04:23:06;;;;;;;7.35;2.55;;;;;;;;;;5012584;28;20504;-75
2023/03/06 04:25:31;;;;;;;6.35;2.90;;;;;;;;;;5012205;28;20030;-76
2023/03/06 04:27:57;;;;;;;5.57;2.47;;;;;;;;;;5008385;28;20038;-76
2023/03/06 04:30:23;;;;;;;6.07;2.35;;;;;;;;;;5009569;28;20040;-75
2023/03/06 04:32:49;;;;;;;5.47;2.58;;;;;;;;;;5016490;28;20034;-75
2023/03/06 04:35:14;;;;;;;7.68;2.90;;;;;;;;;;5014925;28;20513;-75
2023/03/06 04:37:40;;;;;;;3.78;2.15;;;;;;;;;;5013178;28;20045;-75
2023/03/06 04:40:08;;;;;;;3.80;2.40;;;;;;;;;;5010459;28;20390;-75
2023/03/06 04:42:33;;;;;;;5.57;2.22;;;;;;;;;;5008715;28;20044;-76
2023/03/06 04:44:59;;;;;;;6.15;2.47;;;;;;;;;;5012945;28;20038;-75
2023/03/06 04:47:24;;;;;;;4.22;2.67;;;;;;;;;;5014620;28;20041;-75
2023/03/06 04:49:50;;;;;;;5.35;2.80;;;;;;;;;;5011778;28;20030;-76
2023/03/06 04:52:15;;;;;;;4.72;2.58;;;;;;;;;;5015060;28;20045;-75
2023/03/06 04:54:41;;;;;;;6.95;2.80;;;;;;;;;;5011348;28;20386;-75
2023/03/06 04:57:07;;;;;;;6.18;3.03;;;;;;;;;;5012853;28;20046;-75
2023/03/06 04:59:32;;;;;;;8.32;2.83;;;;;;;;;;5016097;28;20042;-75
2023/03/06 05:01:58;;;;;;;6.07;2.97;;;;;;;;;;5006834;28;20045;-75
2023/03/06 05:04:23;;;;;;;9.43;2.83;;;;;;;;;;5002290;28;20034;-75
2023/03/06 05:06:49;;;;;;;7.53;3.63;;;;;;;;;;5007401;28;20044;-75
2023/03/06 05:09:14;;;;;;;9.95;3.20;;;;;;;;;;5007818;28;20470;-75
2023/03/06 05:11:39;;;;;;;9.15;3.40;;;;;;;;;;5004958;28;20057;-75
2023/03/06 05:14:05;;;;;;;5.53;3.03;;;;;;;;;;4999951;28;20387;-76
2023/03/06 05:16:30;;;;;;;5.35;3.00;;;;;;;;;;5015452;28;20038;-75
2023/03/06 05:18:56;;;;;;;5.55;2.78;;;;;;;;;;5011265;28;20038;-75
2023/03/06 05:21:21;;;;;;;5.25;3.25;;;;;;;;;;5008561;28;20049;-75
2023/03/06 05:23:47;;;;;;;9.38;3.72;;;;;;;;;;5014797;28;20034;-75
2023/03/06 05:26:13;;;;;;;5.72;3.25;;;;;;;;;;5011982;28;20038;-75
2023/03/06 05:28:39;;;;;;;5.38;2.70;;;;;;;;;;4997434;28;20541;-75
2023/03/06 05:31:06;;;;;;;9.70;3.47;;;;;;;;;;5010149;28;20033;-75
2023/03/06 05:33:32;;;;;;;7.00;3.63;;;;;;;;;;5012011;28;20045;-75
2023/03/06 05:35:58;;;;;;;6.30;3.35;;;;;;;;;;5008679;28;20041;-75
2023/03/06 05:38:23;;;;;;;5.68;3.30;;;;;;;;;;5014086;28;20026;-75
2023/03/06 05:40:49;;;;;;;5.28;3.25;;;;;;;;;;5012350;28;20054;-76
2023/03/06 05:43:14;;;;;;;7.03;3.40;;;;;;;;;;5004214;28;20069;-75
2023/03/06 05:45:40;;;;;;;8.00;3.35;;;;;;;;;;5010388;28;20038;-76
2023/03/06 05:48:06;;;;;;;6.40;3.95;;;;;;;;;;5014933;28;20034;-75
2023/03/06 05:50:31;;;;;;;5.20;3.10;;;;;;;;;;5011751;28;20037;-75
2023/03/06 05:52:57;;;;;;;7.85;3.40;;;;;;;;;;5014787;28;20061;-75
2023/03/06 05:55:23;;;;;;;8.27;3.00;;;;;;;;;;5014653;28;20113;-75
2023/03/06 05:57:49;;;;;;;5.75;3.30;;;;;;;;;;5007966;28;20045;-76
2023/03/06 06:00:15;;;;;;;5.85;3.67;;;;;;;;;;5004778;28;20026;-75
2023/03/06 06:02:42;;;;;;;9.50;3.75;;;;;;;;;;5030211;28;20038;-75
2023/03/06 06:05:08;;;;;;;7.10;3.90;;;;;;;;;;5013244;28;20045;-76
2023/03/06 06:07:34;;;;;;;9.20;3.72;;;;;;;;;;5014839;28;20088;-75
2023/03/06 06:09:59;;;;;;;6.10;3.50;;;;;;;;;;5009955;28;20037;-75
2023/03/06 06:12:25;;;;;;;8.05;4.10;;;;;;;;;;5014608;28;20052;-75
2023/03/06 06:14:51;;;;;;;12.75;5.10;;;;;;;;;;5014630;28;20414;-75
2023/03/06 06:17:16;;;;;;;8.98;4.45;;;;;;;;;;5007790;28;20057;-75
2023/03/06 06:19:42;;;;;;;8.02;3.50;;;;;;;;;;5002354;28;20100;-76
2023/03/06 06:22:07;;;;;;;7.57;3.40;;;;;;;;;;5006582;28;20022;-75
2023/03/06 06:24:33;;;;;;;8.10;3.47;;;;;;;;;;5008708;28;20034;-75
2023/03/06 06:26:58;;;;;;;11.02;4.35;;;;;;;;;;5002446;28;20049;-75
2023/03/06 06:29:25;;;;;;;8.25;3.88;;;;;;;;;;5002084;28;20029;-75
2023/03/06 06:31:51;;;;;;;8.88;4.13;;;;;;;;;;5009491;28;20044;-75
2023/03/06 06:34:17;;;;;;;8.40;3.90;;;;;;;;;;5010956;28;20109;-75
2023/03/06 06:36:42;;;;;;;8.10;4.18;;;;;;;;;;5011614;28;20042;-75
2023/03/06 06:39:09;;;;;;;7.72;4.10;;;;;;;;;;5014536;28;20063;-76
2023/03/06 06:41:35;;;;;;;8.32;4.40;;;;;;;;;;5011756;28;20172;-75
2023/03/06 06:44:06;;;;;;;9.82;4.20;;;;;;;;;;5012675;28;20487;-75
2023/03/06 06:46:32;;;;;;;8.07;4.15;;;;;;;;;;5012623;28;20124;-75
2023/03/06 06:48:58;;;;;;;9.50;4.03;;;;;;;;;;5013679;28;20030;-75
2023/03/06 06:51:24;;;;;;;7.10;3.80;;;;;;;;;;5012227;28;20034;-75
2023/03/06 06:53:52;;;;;;;8.52;3.88;;;;;;;;;;5013867;28;20052;-75
2023/03/06 06:56:18;;;;;;;8.60;4.28;;;;;;;;;;5012085;28;20049;-75
2023/03/06 06:58:43;;;;;;;7.93;4.43;;;;;;;;;;5029174;28;20042;-75
2023/03/06 07:01:11;;;;;;;12.52;3.90;;;;;;;;;;5010007;28;20485;-75
2023/03/06 07:03:37;;;;;;;10.48;3.83;;;;;;;;;;5029178;28;20127;-75
2023/03/06 07:06:03;;;;;;;6.90;3.90;;;;;;;;;;5013190;28;20081;-75
2023/03/06 07:08:29;;;;;;;7.10;4.15;;;;;;;;;;4994254;28;20033;-75
2023/03/06 07:10:55;;;;;;;7.07;4.03;;;;;;;;;;5006080;28;20034;-75
2023/03/06 07:13:21;;;;;;;7.75;4.38;;;;;;;;;;5011353;28;20359;-75
2023/03/06 07:15:47;;;;;;;7.20;4.15;;;;;;;;;;5001460;28;20034;-76
2023/03/06 07:18:12;;;;;;;11.98;4.43;;;;;;;;;;5013195;28;20080;-76
2023/03/06 07:20:38;;;;;;;7.70;3.92;;;;;;;;;;5007369;28;20092;-75
2023/03/06 07:23:03;;;;;;;5.95;3.78;;;;;;;;;;5013248;28;20045;-76
2023/03/06 07:25:29;;;;;;;10.93;4.78;;;;;;;;;;5026225;28;20038;-75
2023/03/06 07:27:54;;;;;;;9.73;4.85;;;;;;;;;;5013500;28;20449;-76
2023/03/06 07:30:22;;;;;;;8.15;4.43;;;;;;;;;;5024668;28;20029;-75
2023/03/06 07:32:47;;;;;;;11.00;4.30;;;;;;;;;;4992970;28;20486;-75
2023/03/06 07:35:15;;;;;;;10.07;4.65;;;;;;;;;;5011817;28;20044;-75
2023/03/06 07:37:41;;;;;;;6.95;4.32;;;;;;;;;;5013082;28;20034;-75
2023/03/06 07:40:08;;;;;;;10.35;5.03;;;;;;;;;;5010645;28;20095;-76
2023/03/06 07:42:34;;;;;;;8.20;3.97;;;;;;;;;;5003983;28;20034;-76
2023/03/06 07:44:59;;;;;;;10.23;4.30;;;;;;;;;;5006421;28;20033;-75
2023/03/06 07:47:24;;;;;;;6.90;4.28;;;;;;;;;;5008061;28;20038;-76
2023/03/06 07:49:54;;;;;;;8.10;4.20;;;;;;;;;;5000738;28;20394;-75
2023/03/06 07:52:20;;;;;;;9.27;4.10;;;;;;;;;;5018777;28;20051;-75
2023/03/06 07:54:46;;;;;;;6.40;3.92;;;;;;;;;;5007951;28;20175;-77
2023/03/06 07:57:12;;;;;;;7.95;3.92;;;;;;;;;;5002181;28;20524;-76
2023/03/06 07:59:37;;;;;;;10.10;4.90;;;;;;;;;;5011606;28;20105;-76
2023/03/06 08:02:03;;;;;;;9.70;4.40;;;;;;;;;;5010357;28;20061;-75
2023/03/06 08:04:28;;;;;;;8.55;3.78;;;;;;;;;;5017004;28;20026;-76
2023/03/06 08:06:56;;;;;;;9.55;3.95;;;;;;;;;;5017096;28;20034;-75
2023/03/06 08:09:22;;;;;;;8.55;4.15;;;;;;;;;;5005550;28;20458;-76
2023/03/06 08:11:47;;;;;;;8.00;4.55;;;;;;;;;;5013102;28;20030;-75
2023/03/06 08:14:13;;;;;;;8.30;4.32;;;;;;;;;;5014248;28;20030;-76
2023/03/06 08:16:38;;;;;;;8.70;4.53;;;;;;;;;;5019043;28;20116;-76
2023/03/06 08:19:04;;;;;;;7.68;3.97;;;;;;;;;;5016844;28;20033;-76
2023/03/06 08:21:29;;;;;;;6.13;3.72;;;;;;;;;;5016910;28;20060;-75
2023/03/06 08:23:55;;;;;;;6.30;3.40;;;;;;;;;;5016703;28;20158;-75
2023/03/06 08:26:23;;;;;;;9.07;3.90;;;;;;;;;;5030282;28;20030;-76
2023/03/06 08:28:50;;;;;;;8.45;3.83;;;;;;;;;;5002675;28;20036;-75
2023/03/06 08:31:25;;;;;;;7.15;3.70;;;;;;;;;;5014760;28;20046;-75
2023/03/06 08:33:51;;;;;;;6.00;3.53;;;;;;;;;;5016475;28;20061;-76
2023/03/06 08:36:17;;;;;;;7.30;3.78;;;;;;;;;;5000915;28;20035;-75
2023/03/06 08:38:42;;;;;;;6.68;4.05;;;;;;;;;;5006103;28;20030;-76
2023/03/06 08:41:07;;;;;;;9.60;3.95;;;;;;;;;;5008421;28;20037;-75
2023/03/06 08:43:34;;;;;;;7.55;4.45;;;;;;;;;;5000032;28;20076;-76
2023/03/06 08:46:00;;;;;;;8.20;3.63;;;;;;;;;;5005975;28;20033;-77
2023/03/06 08:48:25;;;;;;;10.82;4.60;;;;;;;;;;5005271;28;20050;-76
2023/03/06 08:50:51;;;;;;;10.32;5.47;;;;;;;;;;5012008;28;20034;-76
2023/03/06 08:53:17;;;;;;;16.58;8.05;;;;;;;;;;5002081;28;20085;-76
2023/03/06 08:55:42;;;;;;;18.90;9.25;;;;;;;;;;5017954;28;20026;-77
2023/03/06 08:58:08;;;;;;;31.90;12.82;;;;;;;;;;5012560;28;20397;-76
2023/03/06 09:00:34;;;;;;;27.60;12.75;;;;;;;;;;5000726;28;20039;-76
2023/03/06 09:02:59;;;;;;;27.08;12.07;;;;;;;;;;5006036;28;20426;-77
2023/03/06 09:05:25;;;;;;;24.20;10.05;;;;;;;;;;5006059;28;20046;-76
2023/03/06 09:07:51;;;;;;;17.95;9.13;;;;;;;;;;5012584;28;20025;-77
2023/03/06 09:10:19;;;;;;;16.10;8.38;;;;;;;;;;5012694;28;20097;-77
2023/03/06 09:12:44;;;;;;;12.80;6.00;;;;;;;;;;5011275;28;20033;-76
2023/03/06 09:15:11;;;;;;;15.82;6.07;;;;;;;;;;5012766;28;20492;-77
2023/03/06 09:17:36;;;;;;;12.70;5.38;;;;;;;;;;5001687;28;20034;-77
2023/03/06 09:20:04;;;;;;;8.45;3.65;;;;;;;;;;5001083;28;20044;-77
2023/03/06 09:22:29;;;;;;;7.13;2.35;;;;;;;;;;5004492;28;20386;-76
2023/03/06 09:24:55;;;;;;;5.95;1.85;;;;;;;;;;5009315;28;20117;-76
2023/03/06 09:27:21;;;;;;;5.25;2.55;;;;;;;;;;5012009;28;20065;-77
2023/03/06 09:29:47;;;;;;;5.22;2.15;;;;;;;;;;5012593;28;20041;-76
2023/03/06 09:32:13;;;;;;;4.68;1.50;;;;;;;;;;5012432;28;20029;-77
2023/03/06 09:34:38;;;;;;;3.92;1.50;;;;;;;;;;5004309;28;20034;-76
2023/03/06 09:37:04;;;;;;;3.17;1.20;;;;;;;;;;4992237;28;20034;-76
2023/03/06 09:39:29;;;;;;;3.45;1.30;;;;;;;;;;5010293;28;20038;-76
2023/03/06 09:41:57;;;;;;;3.20;1.40;;;;;;;;;;5011933;28;20037;-77
2023/03/06 09:44:27;;;;;;;2.65;1.27;;;;;;;;;;5024494;28;20042;-77
2023/03/06 09:47:11;;;;;;;4.45;1.30;;;;;;;;;;4999045;28;20986;-77
2023/03/06 09:49:37;;;;;;;;;;;;;;;;;;5011081;28;20037;-77
2023/03/06 09:52:27;;;;;;;3.97;1.05;;;;;;;;;;5011229;28;20325;-77
2023/03/06 09:55:10;;;;;;;2.60;1.00;;;;;;;;;;5010088;28;20120;-77
2023/03/06 09:57:40;;;;;;;2.05;0.85;;;;;;;;;;5003288;28;20499;-77
2023/03/06 10:00:11;;;;;;;2.53;1.00;;;;;;;;;;4997042;28;20039;-77
2023/03/06 10:02:40;;;;;;;1.40;0.90;;;;;;;;;;5005679;28;20099;-77
2023/03/06 10:05:09;;;;;;;2.38;0.70;;;;;;;;;;5002787;28;20038;-77
2023/03/06 10:08:01;;;;;;;1.70;0.90;;;;;;;;;;4999379;28;20568;-77
2023/03/06 10:10:35;;;;;;;2.60;0.90;;;;;;;;;;4995458;28;20041;-77
2023/03/06 10:13:24;;;;;;;2.30;1.10;;;;;;;;;;5006061;28;20378;-78
2023/03/06 10:15:49;;;;;;;1.92;0.90;;;;;;;;;;4998396;28;20038;-77
2023/03/06 10:18:15;;;;;;;2.10;0.90;;;;;;;;;;5024626;28;20037;-77
2023/03/06 10:21:01;;;;;;;1.77;0.80;;;;;;;;;;5009874;28;20390;-77
2023/03/06 10:24:20;;;;;;;2.85;0.90;;;;;;;;;;5010020;28;20457;-76
2023/03/06 10:26:54;;;;;;;3.67;1.00;;;;;;;;;;4959174;28;20046;-77
2023/03/06 10:29:28;;;;;;;;;;;;;;;;;;5007763;28;20053;-77
2023/03/06 10:32:01;;;;;;;4.45;0.80;;;;;;;;;;5010775;28;19924;-77
2023/03/06 10:34:33;;;;;;;1.30;0.80;;;;;;;;;;5007257;28;20560;-77
2023/03/06 10:37:09;;;;;;;1.88;0.90;;;;;;;;;;4997510;28;20054;-77
2023/03/06 10:39:34;;;;;;;2.50;0.90;;;;;;;;;;4994179;28;20053;-77
2023/03/06 10:41:59;;;;;;;2.03;0.73;;;;;;;;;;5010719;28;20080;-77
2023/03/06 10:44:25;;;;;;;1.33;0.73;;;;;;;;;;5008269;28;20087;-76
2023/03/06 10:46:52;;;;;;;2.95;0.60;;;;;;;;;;5010149;28;20045;-77
2023/03/06 10:49:36;;;;;;;2.72;0.63;;;;;;;;;;5016723;28;20049;-77
2023/03/06 10:52:04;;;;;;;1.05;0.60;;;;;;;;;;5008976;28;20100;-77
2023/03/06 10:54:32;;;;;;;2.63;0.70;;;;;;;;;;5009806;28;20124;-78
2023/03/06 10:57:17;;;;;;;1.00;0.50;;;;;;;;;;5024756;28;20485;-77
2023/03/06 10:59:54;;;;;;;1.63;0.50;;;;;;;;;;5007374;28;20077;-77
2023/03/06 11:02:35;;;;;;;1.20;0.60;;;;;;;;;;5010210;28;20030;-77
2023/03/06 11:05:02;;;;;;;2.17;0.60;;;;;;;;;;5009088;28;20057;-77
2023/03/06 11:07:29;;;;;;;0.88;0.52;;;;;;;;;;5010131;28;20033;-77
2023/03/06 11:09:58;;;;;;;2.90;0.70;;;;;;;;;;5003830;28;20034;-77
2023/03/06 11:12:33;;;;;;;1.75;0.60;;;;;;;;;;4995609;28;20049;-77
2023/03/06 11:15:16;;;;;;;2.00;0.65;;;;;;;;;;4985199;28;20108;-77
2023/03/06 11:18:00;;;;;;;0.55;0.50;;;;;;;;;;4994447;28;20034;-78
2023/03/06 11:20:30;;;;;;;1.92;0.73;;;;;;;;;;4997057;28;20173;-77
2023/03/06 11:23:18;;;;;;;0.52;0.43;;;;;;;;;;5006520;28;20045;-77
2023/03/06 11:25:49;;;;;;;1.33;0.70;;;;;;;;;;4998231;28;20061;-77
2023/03/06 11:28:43;;;;;;;1.48;0.60;;;;;;;;;;5002086;28;20052;-78
2023/03/06 11:31:09;;;;;;;;;;;;;;;;;;4997104;28;20168;-77
2023/03/06 11:33:41;;;;;;;1.13;0.60;;;;;;;;;;5008735;28;20340;-78
2023/03/06 11:36:16;;;;;;;0.82;0.52;;;;;;;;;;5008889;28;20057;-77
2023/03/06 11:38:47;;;;;;;1.15;0.50;;;;;;;;;;5002201;28;20037;-76
2023/03/06 11:41:48;;;;;;;1.83;0.50;;;;;;;;;;4990014;28;20545;-78
2023/03/06 11:44:22;;;;;;;0.80;0.50;;;;;;;;;;5002242;28;20359;-76
2023/03/06 11:47:03;;;;;;;0.82;0.60;;;;;;;;;;5008754;28;20045;-77
2023/03/06 11:50:03;;;;;;;1.10;0.63;;;;;;;;;;5004485;28;20030;-76
2023/03/06 11:52:54;;;;;;;0.80;0.50;;;;;;;;;;4995342;28;20054;-77
2023/03/06 11:55:51;;;;;;;1.42;0.65;;;;;;;;;;4995934;28;20042;-77
2023/03/06 11:58:39;;;;;;;1.30;0.60;;;;;;;;;;4976931;28;20050;-78
2023/03/06 12:01:39;;;;;;;0.50;0.50;;;;;;;;;;5003025;28;20444;-77
2023/03/06 12:04:49;;;;;;;1.70;0.85;;;;;;;;;;5005788;28;20074;-77
2023/03/06 12:07:33;;;;;;;1.05;0.50;;;;;;;;;;4965147;28;20408;-77
2023/03/06 12:10:08;;;;;;;0.60;0.52;;;;;;;;;;4954297;28;20137;-77
2023/03/06 12:12:49;;;;;;;0.70;0.57;;;;;;;;;;4983814;28;20046;-77
2023/03/06 12:15:43;;;;;;;0.75;0.55;;;;;;;;;;4996302;28;20130;-77
2023/03/06 12:18:12;;;;;;;0.52;0.50;;;;;;;;;;4997843;28;20049;-77
2023/03/06 12:20:59;;;;;;;0.77;0.50;;;;;;;;;;5007934;28;20596;-77
2023/03/06 12:23:47;;;;;;;0.68;0.47;;;;;;;;;;5008701;28;20033;-77
2023/03/06 12:26:22;;;;;;;0.75;0.50;;;;;;;;;;5023678;28;20065;-77
2023/03/06 12:29:09;;;;;;;0.73;0.50;;;;;;;;;;5006806;28;20456;-77
2023/03/06 12:31:43;;;;;;;2.15;0.43;;;;;;;;;;5008356;28;20053;-77
2023/03/06 12:34:17;;;;;;;0.57;0.50;;;;;;;;;;4996059;28;20044;-78
2023/03/06 12:36:55;;;;;;;0.45;0.40;;;;;;;;;;5006097;28;20447;-78
2023/03/06 12:39:47;;;;;;;1.10;0.60;;;;;;;;;;5007846;28;20456;-77
2023/03/06 12:43:00;;;;;;;1.08;0.50;;;;;;;;;;5020966;28;20042;-77
2023/03/06 12:45:36;;;;;;;0.30;0.30;;;;;;;;;;5003717;28;20161;-77
2023/03/06 12:48:02;;;;;;;0.73;0.50;;;;;;;;;;5009200;28;20033;-78
2023/03/06 12:50:35;;;;;;;0.75;0.55;;;;;;;;;;5007749;28;20496;-78
2023/03/06 12:53:03;;;;;;;2.53;0.65;;;;;;;;;;5023409;28;20054;-77
2023/03/06 12:55:38;;;;;;;1.52;0.57;;;;;;;;;;5011521;28;20120;-77
2023/03/06 12:58:29;;;;;;;0.63;0.52;;;;;;;;;;4999221;28;20770;-78
2023/03/06 13:01:00;;;;;;;2.35;0.60;;;;;;;;;;5003714;28;20062;-78
2023/03/06 13:03:38;;;;;;;0.50;0.50;;;;;;;;;;5003557;28;20042;-76
2023/03/06 13:06:31;;;;;;;1.33;0.60;;;;;;;;;;5006600;28;20099;-76
2023/03/06 13:09:11;;;;;;;0.88;0.60;;;;;;;;;;5003060;28;20502;-78
2023/03/06 13:11:48;;;;;;;1.25;0.63;;;;;;;;;;5010315;28;20042;-76
2023/03/06 13:14:52;;;;;;;1.73;0.70;;;;;;;;;;5002697;28;20108;-77
2023/03/06 13:17:35;;;;;;;1.30;0.70;;;;;;;;;;5010180;28;20430;-78
2023/03/06 13:20:13;;;;;;;1.63;0.60;;;;;;;;;;4995560;28;20042;-77
2023/03/06 13:22:42;;;;;;;1.13;0.68;;;;;;;;;;5011641;28;20041;-77
2023/03/06 13:25:19;;;;;;;2.15;0.50;;;;;;;;;;5020680;28;20041;-78
2023/03/06 13:27:50;;;;;;;2.00;0.60;;;;;;;;;;5011760;28;20034;-77
2023/03/06 13:30:41;;;;;;;0.40;0.40;;;;;;;;;;5011513;28;20081;-77
2023/03/06 13:33:25;;;;;;;0.77;0.50;;;;;;;;;;4985175;28;20557;-77
2023/03/06 13:35:52;;;;;;;;;;;;;;;;;;4990430;28;20538;-77
2023/03/06 13:38:54;;;;;;;0.70;0.60;;;;;;;;;;5000714;28;19922;-78
2023/03/06 13:41:26;;;;;;;1.50;0.60;;;;;;;;;;4935763;28;20403;-77
2023/03/06 13:43:59;;;;;;;3.13;0.70;;;;;;;;;;4977041;28;20034;-77
2023/03/06 13:46:33;;;;;;;1.55;0.85;;;;;;;;;;4983978;28;20031;-78
2023/03/06 13:49:09;;;;;;;1.90;0.63;;;;;;;;;;4994962;28;20042;-76
2023/03/06 13:51:37;;;;;;;1.88;0.70;;;;;;;;;;4985331;28;20041;-76
2023/03/06 13:54:36;;;;;;;0.98;0.52;;;;;;;;;;4987831;28;20538;-76
2023/03/06 13:57:37;;;;;;;2.25;0.70;;;;;;;;;;4987657;28;20406;-78
2023/03/06 14:00:26;;;;;;;2.22;0.80;;;;;;;;;;4960895;28;20462;-77
2023/03/06 14:03:00;;;;;;;2.22;0.63;;;;;;;;;;4978786;28;20501;-77
2023/03/06 14:05:40;;;;;;;1.23;0.50;;;;;;;;;;4978635;28;20465;-77
2023/03/06 14:08:32;;;;;;;1.85;0.60;;;;;;;;;;4977001;28;20057;-77
2023/03/06 14:11:03;;;;;;;0.85;0.70;;;;;;;;;;4977627;28;21001;-78
2023/03/06 14:13:34;;;;;;;2.67;0.63;;;;;;;;;;4981685;28;20125;-77
2023/03/06 14:16:00;;;;;;;1.25;0.40;;;;;;;;;;5001212;28;20121;-77
2023/03/06 14:18:29;;;;;;;2.28;0.70;;;;;;;;;;4982543;28;20121;-77
2023/03/06 14:21:31;;;;;;;0.82;0.52;;;;;;;;;;4985353;28;20497;-76
2023/03/06 14:24:02;;;;;;;2.45;0.60;;;;;;;;;;4964999;28;20058;-76
2023/03/06 14:26:32;;;;;;;2.05;0.60;;;;;;;;;;4988309;28;20154;-76
2023/03/06 14:28:59;;;;;;;0.90;0.50;;;;;;;;;;5003953;28;20513;-76
2023/03/06 14:31:27;;;;;;;1.15;0.47;;;;;;;;;;4982886;28;20039;-77
2023/03/06 14:33:54;;;;;;;1.25;0.50;;;;;;;;;;4986933;28;20124;-76
2023/03/06 14:36:21;;;;;;;1.35;0.65;;;;;;;;;;4991817;28;20046;-77
2023/03/06 14:38:58;;;;;;;2.38;0.70;;;;;;;;;;4981554;28;20034;-76
2023/03/06 14:41:34;;;;;;;2.38;0.90;;;;;;;;;;5005145;28;20390;-78
2023/03/06 14:44:18;;;;;;;1.63;0.70;;;;;;;;;;4990393;28;20041;-77
2023/03/06 14:46:50;;;;;;;3.63;0.60;;;;;;;;;;4977604;28;20104;-77
2023/03/06 14:49:17;;;;;;;1.67;0.63;;;;;;;;;;5004919;28;20061;-77
2023/03/06 14:51:49;;;;;;;1.40;0.50;;;;;;;;;;4965970;28;20047;-76
2023/03/06 14:54:20;;;;;;;1.00;0.57;;;;;;;;;;5005417;28;20075;-76
2023/03/06 14:57:07;;;;;;;2.40;0.70;;;;;;;;;;5004862;28;20080;-76
2023/03/06 14:59:51;;;;;;;1.85;0.70;;;;;;;;;;4985057;28;20073;-78
2023/03/06 15:02:18;;;;;;;;;;;;;;;;;;4990593;28;20129;-77